createdAt,value
2022-12-31T00:03:44.962Z,93946.33
2022-12-31T00:04:18.794Z,93951.55
2022-12-31T00:04:52.439Z,93945.66
2022-12-31T00:05:25.933Z,93947.06
2022-12-31T00:05:59.517Z,93948.40
2022-12-31T00:06:35.657Z,93951.58
2022-12-31T00:07:09.140Z,93950.90
2022-12-31T00:08:14.802Z,93952.32
2022-12-31T00:08:49.289Z,93950.33
2022-12-31T00:09:22.780Z,93952.98
2022-12-31T00:09:56.231Z,93949.70
2022-12-31T00:10:30.398Z,93952.92
2022-12-31T00:11:04.062Z,93955.89
2022-12-31T00:11:38.393Z,93955.83
2022-12-31T00:12:12.066Z,93953.38
2022-12-31T00:12:45.623Z,93953.11
2022-12-31T00:13:19.197Z,93951.73
2022-12-31T00:13:53.895Z,93951.69
2022-12-31T00:14:27.432Z,93952.21
2022-12-31T00:15:00.767Z,93950.77
2022-12-31T00:15:35.128Z,93952.30
2022-12-31T00:16:12.384Z,93951.95
2022-12-31T00:16:46.119Z,93952.00
2022-12-31T00:17:19.627Z,93955.70
2022-12-31T00:17:55.729Z,93954.38
2022-12-31T00:18:29.135Z,93955.91
2022-12-31T00:19:04.017Z,93951.16
2022-12-31T00:19:37.676Z,93959.91
2022-12-31T00:20:11.448Z,93953.48
2022-12-31T00:20:44.832Z,93953.07
2022-12-31T00:21:19.643Z,93953.83
2022-12-31T00:21:53.219Z,93951.47
2022-12-31T00:22:26.688Z,93953.88
2022-12-31T00:23:00.190Z,93955.59
2022-12-31T00:23:33.596Z,93954.36
2022-12-31T00:24:08.004Z,93952.48
2022-12-31T00:24:41.599Z,93951.81
2022-12-31T00:25:15.076Z,93955.00
2022-12-31T00:25:48.483Z,93955.65
2022-12-31T00:26:27.470Z,93959.78
2022-12-31T00:27:00.947Z,93960.16
2022-12-31T00:27:34.390Z,93964.86
2022-12-31T00:28:07.908Z,93958.26
2022-12-31T00:28:42.143Z,93958.68
2022-12-31T00:29:15.659Z,93962.53
2022-12-31T00:29:49.168Z,93963.96
2022-12-31T00:30:22.597Z,93965.49
2022-12-31T00:30:56.182Z,93969.42
2022-12-31T00:31:32.629Z,93970.11
2022-12-31T00:32:06.190Z,93970.52
2022-12-31T00:32:39.655Z,93971.48
2022-12-31T00:33:13.556Z,93974.21
2022-12-31T00:33:47.555Z,93977.54
2022-12-31T00:34:21.686Z,93972.17
2022-12-31T00:34:55.193Z,93974.62
2022-12-31T00:35:28.603Z,93976.98
2022-12-31T00:36:07.184Z,93976.63
2022-12-31T00:36:42.768Z,93975.81
2022-12-31T00:37:16.410Z,93981.33
2022-12-31T00:37:52.843Z,93981.55
2022-12-31T00:38:26.257Z,93980.27
2022-12-31T00:39:01.375Z,93983.13
2022-12-31T00:39:34.819Z,93985.40
2022-12-31T00:40:09.202Z,93984.11
2022-12-31T00:40:42.590Z,93986.15
2022-12-31T00:41:17.973Z,93988.48
2022-12-31T00:41:51.360Z,93988.84
2022-12-31T00:42:24.875Z,93992.04
2022-12-31T00:42:58.337Z,93989.54
2022-12-31T00:43:32.433Z,93992.89
2022-12-31T00:44:06.154Z,93990.16
2022-12-31T00:44:39.616Z,93990.80
2022-12-31T00:45:13.125Z,93991.73
2022-12-31T00:45:46.586Z,93992.80
2022-12-31T00:46:21.112Z,93991.90
2022-12-31T00:46:54.562Z,93985.13
2022-12-31T00:47:28.126Z,93991.07
2022-12-31T00:48:01.727Z,93993.08
2022-12-31T00:48:35.884Z,93990.20
2022-12-31T00:49:09.573Z,93991.00
2022-12-31T00:49:43.101Z,93992.68
2022-12-31T00:50:16.612Z,93988.60
2022-12-31T00:50:50.114Z,93991.80
2022-12-31T00:51:27.675Z,93994.00
2022-12-31T00:52:01.309Z,93989.84
2022-12-31T00:52:34.865Z,93994.40
2022-12-31T00:53:08.331Z,93990.45
2022-12-31T00:53:42.193Z,93988.45
2022-12-31T00:54:15.770Z,93988.93
2022-12-31T00:54:49.213Z,93986.15
2022-12-31T00:55:22.654Z,93987.02
2022-12-31T00:56:03.415Z,93985.95
2022-12-31T00:56:36.799Z,93986.39
2022-12-31T00:57:10.492Z,93982.06
2022-12-31T00:57:44.067Z,93981.30
2022-12-31T00:58:17.521Z,93982.55
2022-12-31T00:58:51.645Z,93983.99
2022-12-31T00:59:27.166Z,93986.10
2022-12-31T01:00:00.660Z,93985.58
2022-12-31T01:00:34.139Z,93985.77
2022-12-31T01:01:15.136Z,93982.80
2022-12-31T01:01:50.330Z,93987.29
2022-12-31T01:02:23.983Z,93985.20
2022-12-31T01:02:57.677Z,93988.20
2022-12-31T01:03:31.339Z,93986.18
2022-12-31T01:04:13.676Z,93988.55
2022-12-31T01:04:47.044Z,93997.79
2022-12-31T01:05:20.593Z,93995.59
2022-12-31T01:05:59.434Z,93991.83
2022-12-31T01:06:33.180Z,93998.48
2022-12-31T01:07:06.680Z,93997.63
2022-12-31T01:07:40.124Z,94002.00
2022-12-31T01:08:13.595Z,94005.98
2022-12-31T01:08:49.049Z,93996.79
2022-12-31T01:09:22.505Z,94003.19
2022-12-31T01:09:57.420Z,94005.49
2022-12-31T01:10:49.693Z,94001.86
2022-12-31T01:11:23.845Z,94004.80
2022-12-31T01:11:57.309Z,94000.98
2022-12-31T01:12:32.513Z,94003.67
2022-12-31T01:13:12.655Z,94001.95
2022-12-31T01:13:50.089Z,94003.86
2022-12-31T01:14:23.516Z,94002.12
2022-12-31T01:14:57.027Z,94006.31
2022-12-31T01:15:38.103Z,94001.38
2022-12-31T01:16:13.714Z,94004.33
2022-12-31T01:16:50.688Z,93999.96
2022-12-31T01:17:24.093Z,94001.33
2022-12-31T01:17:57.597Z,94010.84
2022-12-31T01:18:30.993Z,94009.71
2022-12-31T01:19:09.314Z,94009.58
2022-12-31T01:19:43.546Z,94013.86
2022-12-31T01:20:17.029Z,94009.86
2022-12-31T01:20:50.416Z,94011.25
2022-12-31T01:21:23.862Z,94013.68
2022-12-31T01:21:57.562Z,94014.58
2022-12-31T01:22:30.975Z,94011.98
2022-12-31T01:23:04.874Z,94008.77
2022-12-31T01:23:39.026Z,94013.98
2022-12-31T01:24:13.437Z,94018.48
2022-12-31T01:24:46.904Z,94020.29
2022-12-31T01:25:20.301Z,94022.61
2022-12-31T01:25:53.788Z,94021.92
2022-12-31T01:26:28.177Z,94024.96
2022-12-31T01:27:01.839Z,94025.29
2022-12-31T01:27:35.401Z,94025.09
2022-12-31T01:28:09.175Z,94026.56
2022-12-31T01:28:43.001Z,94030.83
2022-12-31T01:29:17.267Z,94030.99
2022-12-31T01:29:50.897Z,94034.38
2022-12-31T01:30:24.385Z,94034.35
2022-12-31T01:30:58.143Z,94034.30
2022-12-31T01:31:34.034Z,94035.77
2022-12-31T01:32:07.488Z,94033.64
2022-12-31T01:32:40.909Z,94039.15
2022-12-31T01:33:14.280Z,94040.54
2022-12-31T01:33:48.322Z,94037.81
2022-12-31T01:34:21.980Z,94036.63
2022-12-31T01:34:55.470Z,94039.33
2022-12-31T01:35:28.886Z,94040.25
2022-12-31T01:36:11.619Z,94038.39
2022-12-31T01:36:44.995Z,94036.23
2022-12-31T01:37:18.441Z,94036.60
2022-12-31T01:37:51.998Z,94035.92
2022-12-31T01:38:25.465Z,94040.42
2022-12-31T01:39:00.976Z,94037.27
2022-12-31T01:39:34.458Z,94035.86
2022-12-31T01:40:08.204Z,94035.47
2022-12-31T01:40:42.144Z,94033.21
2022-12-31T01:41:26.492Z,94033.38
2022-12-31T01:41:59.884Z,94033.59
2022-12-31T01:42:33.272Z,94032.80
2022-12-31T01:43:18.901Z,94031.70
2022-12-31T01:43:59.226Z,94025.07
2022-12-31T01:44:32.850Z,94033.57
2022-12-31T01:45:12.603Z,94030.58
2022-12-31T01:45:53.277Z,94027.81
2022-12-31T01:46:37.528Z,94031.70
2022-12-31T01:47:18.170Z,94028.48
2022-12-31T01:47:57.431Z,94031.61
2022-12-31T01:48:30.872Z,94028.42
2022-12-31T01:49:19.697Z,94027.30
2022-12-31T01:50:03.711Z,94029.05
2022-12-31T01:50:40.060Z,94032.19
2022-12-31T01:51:13.963Z,94026.78
2022-12-31T01:51:53.135Z,94028.89
2022-12-31T01:52:33.099Z,94028.14
2022-12-31T01:53:08.776Z,94027.68
2022-12-31T01:53:43.713Z,94027.73
2022-12-31T01:54:22.089Z,94032.89
2022-12-31T01:55:06.426Z,94031.77
2022-12-31T01:55:48.743Z,94035.96
2022-12-31T01:56:23.547Z,94035.89
2022-12-31T01:56:57.683Z,94036.58
2022-12-31T01:57:32.025Z,94032.16
2022-12-31T01:58:11.942Z,94035.83
2022-12-31T01:58:49.163Z,94032.38
2022-12-31T01:59:27.510Z,94039.08
2022-12-31T02:00:02.093Z,94037.23
2022-12-31T02:00:38.309Z,94039.09
2022-12-31T02:01:17.689Z,94035.84
2022-12-31T02:01:54.557Z,94036.35
2022-12-31T02:02:28.423Z,94039.70
2022-12-31T02:03:03.859Z,94038.77
2022-12-31T02:03:37.637Z,94041.64
2022-12-31T02:04:13.688Z,94036.67
2022-12-31T02:04:49.247Z,94035.44
2022-12-31T02:05:48.737Z,94039.44
2022-12-31T02:06:29.365Z,94032.93
2022-12-31T02:07:05.552Z,94034.54
2022-12-31T02:07:39.919Z,94029.96
2022-12-31T02:08:13.519Z,94036.71
2022-12-31T02:08:47.724Z,94036.00
2022-12-31T02:09:21.366Z,94034.75
2022-12-31T02:09:54.816Z,94034.37
2022-12-31T02:10:28.251Z,94038.29
2022-12-31T02:11:01.827Z,94036.48
2022-12-31T02:11:38.187Z,94036.71
2022-12-31T02:12:12.032Z,94031.38
2022-12-31T02:12:46.322Z,94035.20
2022-12-31T02:13:19.801Z,94032.30
2022-12-31T02:13:58.658Z,94030.73
2022-12-31T02:14:44.052Z,94031.18
2022-12-31T02:15:17.793Z,94023.60
2022-12-31T02:16:09.110Z,94030.78
2022-12-31T02:16:48.292Z,94022.18
2022-12-31T02:17:59.397Z,94020.98
2022-12-31T02:18:58.943Z,94022.96
2022-12-31T02:19:41.055Z,94022.27
2022-12-31T02:20:33.237Z,94020.09
2022-12-31T02:21:30.575Z,94013.55
2022-12-31T02:22:22.983Z,94016.39
2022-12-31T02:23:02.027Z,94017.52
2022-12-31T02:23:45.174Z,94014.89
2022-12-31T02:24:37.337Z,94012.08
2022-12-31T02:25:35.951Z,94017.33
2022-12-31T02:26:21.414Z,94011.76
2022-12-31T02:27:19.434Z,94016.51
2022-12-31T02:28:18.112Z,94015.81
2022-12-31T02:29:08.525Z,94011.33
2022-12-31T02:30:09.442Z,94016.17
2022-12-31T02:30:47.583Z,94012.47
2022-12-31T02:31:37.421Z,94018.35
2022-12-31T02:32:32.788Z,94020.30
2022-12-31T02:33:35.737Z,94018.39
2022-12-31T02:34:27.699Z,94018.30
2022-12-31T02:35:08.670Z,94022.85
2022-12-31T02:35:49.716Z,94025.48
2022-12-31T02:36:28.121Z,94025.18
2022-12-31T02:37:05.152Z,94024.17
2022-12-31T02:37:42.084Z,94028.86
2022-12-31T02:38:26.854Z,94021.43
2022-12-31T02:39:03.047Z,94023.84
2022-12-31T02:39:37.050Z,94026.42
2022-12-31T02:40:14.959Z,94023.35
2022-12-31T02:40:49.130Z,94029.06
2022-12-31T02:42:01.266Z,94022.06
2022-12-31T02:42:34.714Z,94025.80
2022-12-31T02:43:08.193Z,94023.91
2022-12-31T02:43:47.668Z,94022.26
2022-12-31T02:44:26.819Z,94021.95
2022-12-31T02:45:00.229Z,94025.96
2022-12-31T02:45:47.656Z,94025.71
2022-12-31T02:46:29.726Z,94024.63
2022-12-31T02:47:09.107Z,94033.33
2022-12-31T02:47:58.531Z,94032.92
2022-12-31T02:48:37.991Z,94032.35
2022-12-31T02:51:05.805Z,94029.42
2022-12-31T02:51:50.678Z,94030.67
2022-12-31T02:52:53.563Z,94032.79
2022-12-31T02:54:11.893Z,94037.87
2022-12-31T02:55:03.776Z,94037.68
2022-12-31T02:55:49.773Z,94041.59
2022-12-31T02:56:31.662Z,94041.33
2022-12-31T02:57:20.648Z,94043.43
2022-12-31T02:58:12.147Z,94049.55
2022-12-31T02:59:15.841Z,94050.05
2022-12-31T03:00:22.245Z,94048.61
2022-12-31T03:01:17.189Z,94050.92
2022-12-31T03:02:16.294Z,94052.36
2022-12-31T03:02:53.041Z,94058.14
2022-12-31T03:03:27.812Z,94058.44
2022-12-31T03:04:21.542Z,94058.85
2022-12-31T03:04:57.097Z,94058.73
2022-12-31T03:05:34.666Z,94055.95
2022-12-31T03:06:09.782Z,94060.34
2022-12-31T03:06:43.421Z,94065.38
2022-12-31T03:07:23.422Z,94064.22
2022-12-31T03:07:56.880Z,94063.59
2022-12-31T03:08:30.723Z,94073.27
2022-12-31T03:09:13.214Z,94068.82
2022-12-31T03:09:46.957Z,94064.44
2022-12-31T03:10:20.548Z,94067.48
2022-12-31T03:10:54.144Z,94068.73
2022-12-31T03:11:46.213Z,94066.83
2022-12-31T03:12:41.429Z,94067.60
2022-12-31T03:13:14.789Z,94070.27
2022-12-31T03:13:48.363Z,94069.95
2022-12-31T03:14:21.728Z,94066.84
2022-12-31T03:14:55.285Z,94069.84
2022-12-31T03:15:31.589Z,94073.77
2022-12-31T03:16:04.975Z,94074.77
2022-12-31T03:16:38.439Z,94069.53
2022-12-31T03:17:12.540Z,94073.77
2022-12-31T03:17:53.515Z,94074.73
2022-12-31T03:18:46.979Z,94071.41
2022-12-31T03:19:39.040Z,94070.73
2022-12-31T03:20:31.301Z,94066.20
2022-12-31T03:21:31.535Z,94067.48
2022-12-31T03:22:23.469Z,94065.29
2022-12-31T03:22:56.941Z,94062.83
2022-12-31T03:23:33.782Z,94059.80
2022-12-31T03:24:26.308Z,94057.27
2022-12-31T03:25:34.177Z,94052.27
2022-12-31T03:26:10.929Z,94053.13
2022-12-31T03:26:44.303Z,94052.95
2022-12-31T03:27:17.636Z,94055.58
2022-12-31T03:27:51.299Z,94050.97
2022-12-31T03:28:27.805Z,94051.84
2022-12-31T03:29:01.203Z,94056.39
2022-12-31T03:29:34.677Z,94052.84
2022-12-31T03:30:09.291Z,94055.69
2022-12-31T03:30:45.501Z,94055.78
2022-12-31T03:31:19.034Z,94053.83
2022-12-31T03:31:52.456Z,94054.16
2022-12-31T03:32:26.028Z,94062.34
2022-12-31T03:32:59.951Z,94058.20
2022-12-31T03:33:35.978Z,94056.63
2022-12-31T03:34:09.646Z,94052.55
2022-12-31T03:34:43.054Z,94052.77
2022-12-31T03:35:19.424Z,94052.73
2022-12-31T03:35:53.813Z,94056.20
2022-12-31T03:36:29.877Z,94057.37
2022-12-31T03:37:03.430Z,94060.46
2022-12-31T03:37:36.797Z,94062.97
2022-12-31T03:38:10.277Z,94062.59
2022-12-31T03:38:46.367Z,94059.02
2022-12-31T03:39:21.934Z,94059.21
2022-12-31T03:39:55.341Z,94058.14
2022-12-31T03:40:30.390Z,94062.46
2022-12-31T03:41:03.904Z,94061.80
2022-12-31T03:41:37.384Z,94063.99
2022-12-31T03:42:10.715Z,94070.34
2022-12-31T03:42:44.205Z,94069.20
2022-12-31T03:43:19.490Z,94070.81
2022-12-31T03:43:53.109Z,94070.87
2022-12-31T03:44:26.512Z,94070.30
2022-12-31T03:45:00.003Z,94070.78
2022-12-31T03:45:34.780Z,94070.60
2022-12-31T03:46:09.430Z,94071.37
2022-12-31T03:46:43.023Z,94067.95
2022-12-31T03:47:16.434Z,94065.05
2022-12-31T03:47:49.987Z,94067.10
2022-12-31T03:48:23.973Z,94070.63
2022-12-31T03:48:57.449Z,94069.40
2022-12-31T03:49:30.801Z,94071.11
2022-12-31T03:50:05.802Z,94070.44
2022-12-31T03:50:39.220Z,94072.71
2022-12-31T03:51:12.811Z,94072.52
2022-12-31T03:51:46.201Z,94072.23
2022-12-31T03:52:19.524Z,94068.55
2022-12-31T03:52:52.918Z,94063.78
2022-12-31T03:53:26.353Z,94065.13
2022-12-31T03:53:59.687Z,94061.66
2022-12-31T03:54:33.506Z,94067.17
2022-12-31T03:55:08.000Z,94066.48
2022-12-31T03:55:41.505Z,94071.09
2022-12-31T03:56:14.862Z,94067.86
2022-12-31T03:56:49.625Z,94072.44
2022-12-31T03:57:24.268Z,94073.09
2022-12-31T03:57:57.661Z,94075.79
2022-12-31T03:58:31.060Z,94079.91
2022-12-31T03:59:04.427Z,94076.39
2022-12-31T03:59:39.306Z,94077.88
2022-12-31T04:00:15.599Z,94083.05
2022-12-31T04:00:49.388Z,94086.41
2022-12-31T04:01:24.765Z,94083.49
2022-12-31T04:01:58.508Z,94085.84
2022-12-31T04:02:32.499Z,94089.42
2022-12-31T04:03:05.981Z,94088.55
2022-12-31T04:03:39.504Z,94089.23
2022-12-31T04:04:12.888Z,94085.64
2022-12-31T04:04:46.587Z,94091.07
2022-12-31T04:05:21.350Z,94094.04
2022-12-31T04:05:56.191Z,94088.67
2022-12-31T04:06:29.594Z,94089.84
2022-12-31T04:07:03.600Z,94087.60
2022-12-31T04:07:37.799Z,94091.92
2022-12-31T04:08:11.370Z,94088.27
2022-12-31T04:08:44.816Z,94088.52
2022-12-31T04:09:20.250Z,94086.73
2022-12-31T04:09:53.685Z,94089.02
2022-12-31T04:10:27.322Z,94088.19
2022-12-31T04:11:00.881Z,94088.20
2022-12-31T04:11:36.157Z,94089.18
2022-12-31T04:12:09.480Z,94085.98
2022-12-31T04:12:43.679Z,94084.89
2022-12-31T04:13:17.113Z,94086.98
2022-12-31T04:13:50.487Z,94092.46
2022-12-31T04:14:23.963Z,94090.32
2022-12-31T04:14:57.673Z,94085.84
2022-12-31T04:15:31.191Z,94088.39
2022-12-31T04:16:05.099Z,94093.30
2022-12-31T04:16:38.627Z,94095.58
2022-12-31T04:17:12.546Z,94098.73
2022-12-31T04:17:46.741Z,94098.81
2022-12-31T04:18:20.406Z,94100.36
2022-12-31T04:18:53.785Z,94100.23
2022-12-31T04:19:27.320Z,94106.45
2022-12-31T04:20:00.892Z,94100.77
2022-12-31T04:20:34.395Z,94100.22
2022-12-31T04:21:07.865Z,94099.31
2022-12-31T04:21:41.268Z,94104.77
2022-12-31T04:22:14.729Z,94108.05
2022-12-31T04:22:48.095Z,94101.18
2022-12-31T04:23:21.505Z,94099.44
2022-12-31T04:23:55.945Z,94102.48
2022-12-31T04:24:29.459Z,94101.14
2022-12-31T04:25:02.963Z,94097.11
2022-12-31T04:25:36.597Z,94100.83
2022-12-31T04:26:10.005Z,94097.23
2022-12-31T04:26:44.272Z,94096.04
2022-12-31T04:27:17.699Z,94100.39
2022-12-31T04:27:51.100Z,94099.53
2022-12-31T04:28:24.415Z,94102.98
2022-12-31T04:28:57.878Z,94099.80
2022-12-31T04:29:31.321Z,94104.30
2022-12-31T04:30:05.165Z,94105.02
2022-12-31T04:30:38.580Z,94106.94
2022-12-31T04:31:12.260Z,94106.30
2022-12-31T04:31:47.728Z,94105.95
2022-12-31T04:32:21.154Z,94104.63
2022-12-31T04:32:54.492Z,94108.52
2022-12-31T04:33:28.036Z,94108.63
2022-12-31T04:34:01.945Z,94115.12
2022-12-31T04:34:35.975Z,94112.43
2022-12-31T04:35:10.791Z,94116.83
2022-12-31T04:35:44.710Z,94120.89
2022-12-31T04:36:18.126Z,94114.07
2022-12-31T04:36:51.587Z,94119.25
2022-12-31T04:37:25.069Z,94119.41
2022-12-31T04:37:58.406Z,94119.53
2022-12-31T04:38:32.401Z,94119.59
2022-12-31T04:39:05.858Z,94116.31
2022-12-31T04:39:39.951Z,94119.25
2022-12-31T04:40:13.362Z,94119.27
2022-12-31T04:41:05.189Z,94119.16
2022-12-31T04:41:38.525Z,94118.34
2022-12-31T04:42:11.939Z,94114.98
2022-12-31T04:42:45.291Z,94115.88
2022-12-31T04:43:18.676Z,94117.10
2022-12-31T04:43:54.424Z,94119.44
2022-12-31T04:44:27.886Z,94122.68
2022-12-31T04:45:01.222Z,94121.14
2022-12-31T04:45:35.033Z,94117.70
2022-12-31T04:46:08.662Z,94120.20
2022-12-31T04:46:42.151Z,94120.45
2022-12-31T04:47:21.755Z,94123.06
2022-12-31T04:47:56.832Z,94115.70
2022-12-31T04:48:30.266Z,94123.50
2022-12-31T04:49:04.121Z,94126.81
2022-12-31T04:49:37.581Z,94126.39
2022-12-31T04:50:10.897Z,94134.25
2022-12-31T04:50:46.320Z,94129.02
2022-12-31T04:51:21.083Z,94128.50
2022-12-31T04:51:54.527Z,94130.29
2022-12-31T04:52:27.942Z,94133.31
2022-12-31T04:53:01.396Z,94135.00
2022-12-31T04:53:34.854Z,94139.11
2022-12-31T04:54:08.236Z,94141.34
2022-12-31T04:54:41.555Z,94136.66
2022-12-31T04:55:14.938Z,94139.54
2022-12-31T04:55:48.295Z,94143.33
2022-12-31T04:56:22.031Z,94139.98
2022-12-31T04:56:55.532Z,94144.26
2022-12-31T04:57:28.869Z,94144.77
2022-12-31T04:58:05.100Z,94145.08
2022-12-31T04:58:39.558Z,94143.16
2022-12-31T04:59:13.179Z,94140.29
2022-12-31T04:59:46.512Z,94144.73
2022-12-31T05:00:20.083Z,94143.38
2022-12-31T05:00:54.800Z,94141.00
2022-12-31T05:01:28.307Z,94135.64
2022-12-31T05:02:01.843Z,94136.70
2022-12-31T05:02:35.515Z,94137.05
2022-12-31T05:03:11.455Z,94129.08
2022-12-31T05:03:44.989Z,94126.90
2022-12-31T05:04:18.419Z,94127.73
2022-12-31T05:04:51.753Z,94128.85
2022-12-31T05:05:25.163Z,94125.54
2022-12-31T05:06:07.169Z,94125.63
2022-12-31T05:06:40.473Z,94124.66
2022-12-31T05:07:13.864Z,94120.17
2022-12-31T05:07:47.145Z,94117.06
2022-12-31T05:08:20.961Z,94118.23
2022-12-31T05:08:54.429Z,94115.70
2022-12-31T05:09:28.495Z,94110.84
2022-12-31T05:10:02.249Z,94111.41
2022-12-31T05:10:36.401Z,94107.45
2022-12-31T05:11:10.709Z,94109.25
2022-12-31T05:11:44.225Z,94110.66
2022-12-31T05:12:17.606Z,94104.79
2022-12-31T05:12:51.051Z,94107.05
2022-12-31T05:13:28.091Z,94105.34
2022-12-31T05:14:06.599Z,94108.73
2022-12-31T05:14:39.979Z,94104.58
2022-12-31T05:15:13.464Z,94103.48
2022-12-31T05:15:47.832Z,94104.59
2022-12-31T05:16:21.374Z,94099.23
2022-12-31T05:16:55.224Z,94101.30
2022-12-31T05:17:28.557Z,94098.20
2022-12-31T05:18:02.297Z,94097.42
2022-12-31T05:18:36.692Z,94093.96
2022-12-31T05:19:10.782Z,94095.30
2022-12-31T05:19:44.271Z,94096.45
2022-12-31T05:20:17.790Z,94096.48
2022-12-31T05:20:51.219Z,94097.16
2022-12-31T05:21:24.556Z,94099.10
2022-12-31T05:22:16.474Z,94094.30
2022-12-31T05:22:49.907Z,94099.96
2022-12-31T05:23:23.779Z,94098.13
2022-12-31T05:23:57.505Z,94104.55
2022-12-31T05:24:30.985Z,94106.98
2022-12-31T05:25:04.749Z,94108.77
2022-12-31T05:25:38.342Z,94108.03
2022-12-31T05:26:11.686Z,94112.20
2022-12-31T05:26:45.176Z,94114.92
2022-12-31T05:27:18.705Z,94112.54
2022-12-31T05:27:52.039Z,94115.79
2022-12-31T05:28:25.755Z,94116.18
2022-12-31T05:29:00.605Z,94119.15
2022-12-31T05:29:34.122Z,94113.88
2022-12-31T05:30:08.301Z,94124.11
2022-12-31T05:30:42.310Z,94122.92
2022-12-31T05:31:15.826Z,94126.60
2022-12-31T05:31:49.236Z,94124.43
2022-12-31T05:32:22.709Z,94127.14
2022-12-31T05:32:56.326Z,94122.83
2022-12-31T05:33:29.845Z,94125.40
2022-12-31T05:34:03.340Z,94123.88
2022-12-31T05:34:36.722Z,94122.92
2022-12-31T05:35:10.211Z,94127.98
2022-12-31T05:35:43.709Z,94131.41
2022-12-31T05:36:17.159Z,94134.39
2022-12-31T05:36:50.525Z,94134.73
2022-12-31T05:37:24.014Z,94132.73
2022-12-31T05:37:57.546Z,94141.61
2022-12-31T05:38:30.981Z,94140.58
2022-12-31T05:39:04.603Z,94141.31
2022-12-31T05:39:37.984Z,94140.84
2022-12-31T05:40:12.476Z,94145.84
2022-12-31T05:40:45.870Z,94151.36
2022-12-31T05:41:20.778Z,94154.08
2022-12-31T05:41:54.216Z,94157.32
2022-12-31T05:42:27.800Z,94155.66
2022-12-31T05:43:01.857Z,94153.84
2022-12-31T05:43:36.622Z,94150.89
2022-12-31T05:44:11.012Z,94160.00
2022-12-31T05:44:44.619Z,94156.27
2022-12-31T05:45:18.737Z,94154.73
2022-12-31T05:45:52.117Z,94164.41
2022-12-31T05:46:25.603Z,94170.46
2022-12-31T05:46:58.997Z,94156.91
2022-12-31T05:47:32.765Z,94162.89
2022-12-31T05:48:06.824Z,94169.81
2022-12-31T05:48:40.193Z,94162.95
2022-12-31T05:49:13.632Z,94165.45
2022-12-31T05:49:47.081Z,94165.59
2022-12-31T05:50:20.451Z,94170.59
2022-12-31T05:51:01.191Z,94175.27
2022-12-31T05:51:34.518Z,94166.90
2022-12-31T05:52:08.371Z,94169.15
2022-12-31T05:52:47.411Z,94175.92
2022-12-31T05:53:21.254Z,94176.05
2022-12-31T05:53:54.708Z,94173.94
2022-12-31T05:54:28.375Z,94172.46
2022-12-31T05:55:02.151Z,94174.42
2022-12-31T05:55:35.536Z,94165.53
2022-12-31T05:56:09.022Z,94170.41
2022-12-31T05:56:42.386Z,94173.67
2022-12-31T05:57:15.909Z,94174.73
2022-12-31T05:57:49.303Z,94178.23
2022-12-31T05:58:22.840Z,94178.85
2022-12-31T05:58:56.460Z,94183.86
2022-12-31T05:59:30.065Z,94171.52
2022-12-31T06:00:06.327Z,94179.86
2022-12-31T06:00:46.745Z,94173.75
2022-12-31T06:01:20.358Z,94179.09
2022-12-31T06:01:54.231Z,94178.02
2022-12-31T06:02:27.615Z,94179.64
2022-12-31T06:03:01.106Z,94173.64
2022-12-31T06:03:34.686Z,94176.42
2022-12-31T06:04:08.171Z,94168.85
2022-12-31T06:04:41.753Z,94165.55
2022-12-31T06:05:15.070Z,94168.67
2022-12-31T06:05:48.494Z,94178.02
2022-12-31T06:06:22.008Z,94177.66
2022-12-31T06:06:55.533Z,94167.92
2022-12-31T06:07:29.091Z,94179.18
2022-12-31T06:08:02.552Z,94166.74
2022-12-31T06:08:35.932Z,94166.56
2022-12-31T06:09:09.741Z,94163.25
2022-12-31T06:09:43.133Z,94168.02
2022-12-31T06:10:16.647Z,94166.60
2022-12-31T06:10:50.486Z,94164.81
2022-12-31T06:11:24.099Z,94173.88
2022-12-31T06:11:58.238Z,94167.45
2022-12-31T06:12:31.635Z,94169.61
2022-12-31T06:13:05.371Z,94164.38
2022-12-31T06:13:38.687Z,94163.64
2022-12-31T06:14:13.134Z,94164.22
2022-12-31T06:14:46.473Z,94157.45
2022-12-31T06:15:19.921Z,94164.17
2022-12-31T06:15:53.773Z,94163.84
2022-12-31T06:16:27.430Z,94163.63
2022-12-31T06:17:01.036Z,94162.93
2022-12-31T06:17:34.435Z,94156.39
2022-12-31T06:18:08.121Z,94156.06
2022-12-31T06:18:41.639Z,94156.68
2022-12-31T06:19:15.085Z,94152.19
2022-12-31T06:19:48.960Z,94153.58
2022-12-31T06:20:22.339Z,94149.27
2022-12-31T06:20:58.602Z,94153.02
2022-12-31T06:21:32.164Z,94149.01
2022-12-31T06:22:05.541Z,94150.55
2022-12-31T06:22:38.954Z,94146.09
2022-12-31T06:23:12.301Z,94142.44
2022-12-31T06:23:46.281Z,94138.89
2022-12-31T06:24:19.741Z,94139.65
2022-12-31T06:24:53.097Z,94133.27
2022-12-31T06:25:26.535Z,94138.69
2022-12-31T06:26:05.132Z,94135.71
2022-12-31T06:26:38.538Z,94130.25
2022-12-31T06:27:11.996Z,94127.21
2022-12-31T06:27:45.496Z,94127.46
2022-12-31T06:28:20.600Z,94127.67
2022-12-31T06:28:54.596Z,94127.98
2022-12-31T06:29:28.045Z,94125.83
2022-12-31T06:30:01.440Z,94126.05
2022-12-31T06:30:34.842Z,94130.91
2022-12-31T06:31:12.117Z,94124.79
2022-12-31T06:31:45.611Z,94120.79
2022-12-31T06:32:18.958Z,94119.08
2022-12-31T06:32:52.378Z,94123.36
2022-12-31T06:33:25.925Z,94115.06
2022-12-31T06:33:59.391Z,94121.63
2022-12-31T06:34:32.865Z,94117.54
2022-12-31T06:35:07.333Z,94118.36
2022-12-31T06:35:40.698Z,94115.23
2022-12-31T06:36:15.867Z,94116.89
2022-12-31T06:36:50.427Z,94115.61
2022-12-31T06:37:23.959Z,94117.34
2022-12-31T06:37:57.383Z,94116.58
2022-12-31T06:38:33.873Z,94119.69
2022-12-31T06:39:07.336Z,94119.06
2022-12-31T06:39:40.779Z,94124.38
2022-12-31T06:40:14.453Z,94129.27
2022-12-31T06:40:47.785Z,94123.14
2022-12-31T06:41:22.191Z,94129.59
2022-12-31T06:41:55.756Z,94127.73
2022-12-31T06:42:31.293Z,94129.94
2022-12-31T06:43:04.725Z,94134.14
2022-12-31T06:43:39.608Z,94135.48
2022-12-31T06:44:13.102Z,94130.46
2022-12-31T06:44:47.860Z,94136.34
2022-12-31T06:45:21.309Z,94132.00
2022-12-31T06:45:54.876Z,94139.02
2022-12-31T06:46:29.213Z,94144.67
2022-12-31T06:47:04.502Z,94145.92
2022-12-31T06:47:38.063Z,94146.08
2022-12-31T06:48:11.501Z,94154.10
2022-12-31T06:48:45.809Z,94150.11
2022-12-31T06:49:21.806Z,94150.08
2022-12-31T06:49:55.202Z,94153.35
2022-12-31T06:50:28.716Z,94159.34
2022-12-31T06:51:10.620Z,94163.54
2022-12-31T06:51:47.999Z,94168.98
2022-12-31T06:52:21.912Z,94174.19
2022-12-31T06:52:55.373Z,94170.65
2022-12-31T06:53:28.904Z,94173.39
2022-12-31T06:54:02.457Z,94171.33
2022-12-31T06:54:36.199Z,94182.55
2022-12-31T06:55:10.416Z,94186.87
2022-12-31T06:55:46.954Z,94187.84
2022-12-31T06:56:26.501Z,94189.63
2022-12-31T06:57:04.474Z,94193.17
2022-12-31T06:57:38.194Z,94191.29
2022-12-31T06:58:15.962Z,94194.91
2022-12-31T06:58:50.200Z,94205.39
2022-12-31T06:59:26.953Z,94206.19
2022-12-31T07:00:00.599Z,94201.53
2022-12-31T07:00:34.226Z,94201.98
2022-12-31T07:01:26.004Z,94206.50
2022-12-31T07:02:13.548Z,94210.79
2022-12-31T07:03:13.598Z,94207.80
2022-12-31T07:03:59.795Z,94205.15
2022-12-31T07:04:42.408Z,94202.20
2022-12-31T07:05:58.109Z,94204.05
2022-12-31T07:06:44.310Z,94204.64
2022-12-31T07:07:24.179Z,94202.85
2022-12-31T07:08:27.784Z,94206.77
2022-12-31T07:09:16.896Z,94201.80
2022-12-31T07:10:00.740Z,94208.27
2022-12-31T07:10:41.669Z,94210.95
2022-12-31T07:11:26.581Z,94203.94